sensor_id;sensor_type;location;lat;lon;timestamp;pressure;altitude;pressure_sealevel;temperature;humidity
70250;BME280;57644;48.416;-123.374;2022-11-10T00:01:59;102124.19;;;-2.54;70.99
70250;BME280;57644;48.416;-123.374;2022-11-10T00:04:29;102130.13;;;-2.63;71.39
70250;BME280;57644;48.416;-123.374;2022-11-10T00:07:00;102136.14;;;-2.63;71.08
70250;BME280;57644;48.416;-123.374;2022-11-10T00:09:30;102144.35;;;-2.61;71.09
70250;BME280;57644;48.416;-123.374;2022-11-10T00:12:01;102146.34;;;-2.49;70.74
70250;BME280;57644;48.416;-123.374;2022-11-10T00:14:31;102149.32;;;-2.50;70.82
70250;BME280;57644;48.416;-123.374;2022-11-10T00:17:02;102155.60;;;-2.40;70.64
70250;BME280;57644;48.416;-123.374;2022-11-10T00:19:33;102155.95;;;-2.38;70.43
70250;BME280;57644;48.416;-123.374;2022-11-10T00:22:03;102162.49;;;-2.31;70.33
70250;BME280;57644;48.416;-123.374;2022-11-10T00:24:33;102162.90;;;-2.29;70.34
70250;BME280;57644;48.416;-123.374;2022-11-10T00:27:04;102164.94;;;-2.52;70.57
70250;BME280;57644;48.416;-123.374;2022-11-10T00:29:35;102165.54;;;-2.49;70.67
70250;BME280;57644;48.416;-123.374;2022-11-10T00:32:05;102170.96;;;-2.53;71.07
70250;BME280;57644;48.416;-123.374;2022-11-10T00:34:36;102174.44;;;-2.49;70.90
70250;BME280;57644;48.416;-123.374;2022-11-10T00:37:06;102174.46;;;-2.50;71.36
70250;BME280;57644;48.416;-123.374;2022-11-10T00:39:36;102172.77;;;-2.46;70.62
70250;BME280;57644;48.416;-123.374;2022-11-10T00:42:07;102176.00;;;-2.48;70.94
70250;BME280;57644;48.416;-123.374;2022-11-10T00:44:37;102183.09;;;-2.62;71.76
70250;BME280;57644;48.416;-123.374;2022-11-10T00:47:08;102181.82;;;-2.60;71.47
70250;BME280;57644;48.416;-123.374;2022-11-10T00:49:38;102185.22;;;-2.57;71.48
70250;BME280;57644;48.416;-123.374;2022-11-10T00:52:09;102186.12;;;-2.52;71.28
70250;BME280;57644;48.416;-123.374;2022-11-10T00:54:40;102191.43;;;-2.49;71.44
70250;BME280;57644;48.416;-123.374;2022-11-10T00:57:10;102194.71;;;-2.51;71.18
70250;BME280;57644;48.416;-123.374;2022-11-10T00:59:40;102201.77;;;-2.61;71.56
70250;BME280;57644;48.416;-123.374;2022-11-10T01:02:10;102204.64;;;-2.59;71.06
70250;BME280;57644;48.416;-123.374;2022-11-10T01:04:41;102203.98;;;-2.64;71.07
70250;BME280;57644;48.416;-123.374;2022-11-10T01:07:12;102208.39;;;-2.70;71.46
70250;BME280;57644;48.416;-123.374;2022-11-10T01:09:42;102208.83;;;-2.68;71.26
70250;BME280;57644;48.416;-123.374;2022-11-10T01:12:12;102213.98;;;-2.72;71.56
70250;BME280;57644;48.416;-123.374;2022-11-10T01:14:46;102218.23;;;-2.74;71.79
70250;BME280;57644;48.416;-123.374;2022-11-10T01:17:14;102222.60;;;-2.79;71.79
70250;BME280;57644;48.416;-123.374;2022-11-10T01:19:44;102224.91;;;-3.02;72.49
70250;BME280;57644;48.416;-123.374;2022-11-10T01:22:15;102224.37;;;-3.03;72.60
70250;BME280;57644;48.416;-123.374;2022-11-10T01:24:45;102230.88;;;-3.22;73.20
70250;BME280;57644;48.416;-123.374;2022-11-10T01:27:16;102228.22;;;-2.97;72.72
70250;BME280;57644;48.416;-123.374;2022-11-10T01:29:47;102226.19;;;-2.89;72.19
70250;BME280;57644;48.416;-123.374;2022-11-10T01:32:17;102227.18;;;-2.91;72.68
70250;BME280;57644;48.416;-123.374;2022-11-10T01:34:48;102229.20;;;-2.94;72.35
70250;BME280;57644;48.416;-123.374;2022-11-10T01:37:18;102232.75;;;-2.93;72.33
70250;BME280;57644;48.416;-123.374;2022-11-10T01:39:49;102234.76;;;-3.09;73.04
70250;BME280;57644;48.416;-123.374;2022-11-10T01:42:24;102236.79;;;-2.96;72.38
70250;BME280;57644;48.416;-123.374;2022-11-10T01:47:21;102244.47;;;-2.86;71.82
70250;BME280;57644;48.416;-123.374;2022-11-10T01:49:52;102245.69;;;-2.79;71.46
70250;BME280;57644;48.416;-123.374;2022-11-10T01:52:22;102249.09;;;-2.74;71.38
70250;BME280;57644;48.416;-123.374;2022-11-10T01:54:52;102247.34;;;-2.70;71.57
70250;BME280;57644;48.416;-123.374;2022-11-10T01:57:23;102249.67;;;-2.64;71.57
70250;BME280;57644;48.416;-123.374;2022-11-10T01:59:53;102253.11;;;-2.64;71.38
70250;BME280;57644;48.416;-123.374;2022-11-10T02:02:27;102247.99;;;-2.66;71.00
70250;BME280;57644;48.416;-123.374;2022-11-10T02:04:55;102251.11;;;-2.73;71.15
70250;BME280;57644;48.416;-123.374;2022-11-10T02:07:27;102252.25;;;-2.72;71.19
70250;BME280;57644;48.416;-123.374;2022-11-10T02:09:55;102258.29;;;-2.67;71.07
70250;BME280;57644;48.416;-123.374;2022-11-10T02:12:26;102262.13;;;-2.64;70.86
70250;BME280;57644;48.416;-123.374;2022-11-10T02:14:57;102267.07;;;-2.71;71.15
70250;BME280;57644;48.416;-123.374;2022-11-10T02:17:27;102269.28;;;-2.76;71.57
70250;BME280;57644;48.416;-123.374;2022-11-10T02:19:59;102269.88;;;-2.73;71.50
70250;BME280;57644;48.416;-123.374;2022-11-10T02:22:28;102275.51;;;-2.85;72.50
70250;BME280;57644;48.416;-123.374;2022-11-10T02:25:00;102280.34;;;-2.77;72.57
70250;BME280;57644;48.416;-123.374;2022-11-10T02:27:30;102280.62;;;-2.72;72.54
70250;BME280;57644;48.416;-123.374;2022-11-10T02:30:01;102280.14;;;-2.65;72.51
70250;BME280;57644;48.416;-123.374;2022-11-10T02:32:31;102287.00;;;-2.60;72.34
70250;BME280;57644;48.416;-123.374;2022-11-10T02:35:02;102291.18;;;-2.65;72.80
70250;BME280;57644;48.416;-123.374;2022-11-10T02:37:33;102292.28;;;-2.75;73.09
70250;BME280;57644;48.416;-123.374;2022-11-10T02:40:04;102293.63;;;-2.87;73.59
70250;BME280;57644;48.416;-123.374;2022-11-10T02:42:33;102296.27;;;-2.86;73.76
70250;BME280;57644;48.416;-123.374;2022-11-10T02:45:05;102300.29;;;-2.79;73.72
70250;BME280;57644;48.416;-123.374;2022-11-10T02:47:35;102298.14;;;-2.77;73.88
70250;BME280;57644;48.416;-123.374;2022-11-10T02:50:06;102304.86;;;-2.76;74.08
70250;BME280;57644;48.416;-123.374;2022-11-10T02:52:36;102311.17;;;-2.76;74.29
70250;BME280;57644;48.416;-123.374;2022-11-10T02:55:07;102314.09;;;-2.62;74.03
70250;BME280;57644;48.416;-123.374;2022-11-10T02:57:38;102314.64;;;-2.55;74.16
70250;BME280;57644;48.416;-123.374;2022-11-10T03:00:09;102317.86;;;-2.41;73.82
70250;BME280;57644;48.416;-123.374;2022-11-10T03:02:38;102324.15;;;-2.40;74.22
70250;BME280;57644;48.416;-123.374;2022-11-10T03:05:10;102329.63;;;-2.33;74.14
70250;BME280;57644;48.416;-123.374;2022-11-10T03:07:40;102331.76;;;-2.39;74.90
70250;BME280;57644;48.416;-123.374;2022-11-10T03:10:10;102341.89;;;-2.44;75.37
70250;BME280;57644;48.416;-123.374;2022-11-10T03:12:41;102350.82;;;-2.43;75.85
70250;BME280;57644;48.416;-123.374;2022-11-10T03:15:11;102352.02;;;-2.30;75.44
70250;BME280;57644;48.416;-123.374;2022-11-10T03:17:41;102353.72;;;-2.22;75.14
70250;BME280;57644;48.416;-123.374;2022-11-10T03:20:13;102356.36;;;-2.15;75.83
70250;BME280;57644;48.416;-123.374;2022-11-10T03:22:43;102360.85;;;-2.03;75.86
70250;BME280;57644;48.416;-123.374;2022-11-10T03:25:14;102362.68;;;-1.95;75.85
70250;BME280;57644;48.416;-123.374;2022-11-10T03:27:44;102364.91;;;-1.89;75.73
70250;BME280;57644;48.416;-123.374;2022-11-10T03:30:15;102367.08;;;-2.15;76.63
70250;BME280;57644;48.416;-123.374;2022-11-10T03:32:44;102369.15;;;-1.96;76.06
70250;BME280;57644;48.416;-123.374;2022-11-10T03:35:15;102374.98;;;-1.89;75.69
70250;BME280;57644;48.416;-123.374;2022-11-10T03:37:45;102380.54;;;-1.83;75.54
70250;BME280;57644;48.416;-123.374;2022-11-10T03:40:16;102381.24;;;-1.74;75.49
70250;BME280;57644;48.416;-123.374;2022-11-10T03:42:46;102378.90;;;-1.68;75.25
70250;BME280;57644;48.416;-123.374;2022-11-10T03:45:17;102378.19;;;-1.68;75.34
70250;BME280;57644;48.416;-123.374;2022-11-10T03:47:49;102374.91;;;-1.66;75.42
70250;BME280;57644;48.416;-123.374;2022-11-10T03:50:18;102377.64;;;-1.66;75.27
70250;BME280;57644;48.416;-123.374;2022-11-10T03:52:49;102379.77;;;-1.60;75.12
70250;BME280;57644;48.416;-123.374;2022-11-10T03:55:19;102381.88;;;-1.72;75.73
70250;BME280;57644;48.416;-123.374;2022-11-10T03:57:50;102382.68;;;-1.72;75.84
70250;BME280;57644;48.416;-123.374;2022-11-10T04:00:21;102389.51;;;-1.68;76.00
70250;BME280;57644;48.416;-123.374;2022-11-10T04:02:51;102391.02;;;-1.60;75.90
70250;BME280;57644;48.416;-123.374;2022-11-10T04:05:22;102394.60;;;-1.54;75.49
70250;BME280;57644;48.416;-123.374;2022-11-10T04:07:57;102396.30;;;-1.49;75.35
70250;BME280;57644;48.416;-123.374;2022-11-10T04:10:23;102400.98;;;-1.54;75.65
70250;BME280;57644;48.416;-123.374;2022-11-10T04:12:53;102402.62;;;-1.50;75.68
70250;BME280;57644;48.416;-123.374;2022-11-10T04:15:23;102403.94;;;-1.47;75.91
70250;BME280;57644;48.416;-123.374;2022-11-10T04:17:54;102406.29;;;-1.44;76.50
70250;BME280;57644;48.416;-123.374;2022-11-10T04:20:24;102406.35;;;-1.40;76.20
70250;BME280;57644;48.416;-123.374;2022-11-10T04:22:55;102409.04;;;-1.36;76.14
70250;BME280;57644;48.416;-123.374;2022-11-10T04:25:25;102408.13;;;-1.47;77.55
70250;BME280;57644;48.416;-123.374;2022-11-10T04:27:55;102409.90;;;-1.43;76.73
70250;BME280;57644;48.416;-123.374;2022-11-10T04:30:26;102411.89;;;-1.47;77.02
70250;BME280;57644;48.416;-123.374;2022-11-10T04:32:56;102409.82;;;-1.48;77.19
70250;BME280;57644;48.416;-123.374;2022-11-10T04:35:27;102410.60;;;-1.61;78.50
70250;BME280;57644;48.416;-123.374;2022-11-10T04:37:58;102415.72;;;-1.61;77.77
70250;BME280;57644;48.416;-123.374;2022-11-10T04:40:29;102417.91;;;-1.64;77.80
70250;BME280;57644;48.416;-123.374;2022-11-10T04:42:59;102419.84;;;-1.62;77.25
70250;BME280;57644;48.416;-123.374;2022-11-10T04:45:29;102423.76;;;-1.63;76.83
70250;BME280;57644;48.416;-123.374;2022-11-10T04:48:00;102426.23;;;-1.69;76.63
70250;BME280;57644;48.416;-123.374;2022-11-10T04:50:30;102428.48;;;-1.73;76.84
70250;BME280;57644;48.416;-123.374;2022-11-10T04:53:00;102431.27;;;-1.71;76.38
70250;BME280;57644;48.416;-123.374;2022-11-10T04:55:31;102435.50;;;-1.70;76.31
70250;BME280;57644;48.416;-123.374;2022-11-10T04:58:01;102443.57;;;-1.75;76.55
70250;BME280;57644;48.416;-123.374;2022-11-10T05:00:32;102444.37;;;-1.76;76.51
70250;BME280;57644;48.416;-123.374;2022-11-10T05:03:04;102450.30;;;-1.99;77.45
70250;BME280;57644;48.416;-123.374;2022-11-10T05:05:33;102452.53;;;-2.06;77.76
70250;BME280;57644;48.416;-123.374;2022-11-10T05:08:04;102458.05;;;-2.17;78.45
70250;BME280;57644;48.416;-123.374;2022-11-10T05:10:35;102461.05;;;-2.40;79.02
70250;BME280;57644;48.416;-123.374;2022-11-10T05:13:04;102465.05;;;-2.37;79.36
70250;BME280;57644;48.416;-123.374;2022-11-10T05:15:35;102464.80;;;-2.43;79.36
70250;BME280;57644;48.416;-123.374;2022-11-10T05:18:05;102468.07;;;-2.31;78.63
70250;BME280;57644;48.416;-123.374;2022-11-10T05:20:37;102470.80;;;-2.35;78.86
70250;BME280;57644;48.416;-123.374;2022-11-10T05:23:06;102472.11;;;-2.32;78.74
70250;BME280;57644;48.416;-123.374;2022-11-10T05:25:38;102469.20;;;-2.38;79.12
70250;BME280;57644;48.416;-123.374;2022-11-10T05:28:08;102472.45;;;-2.26;78.53
70250;BME280;57644;48.416;-123.374;2022-11-10T05:30:38;102471.12;;;-2.25;78.19
70250;BME280;57644;48.416;-123.374;2022-11-10T05:33:08;102474.76;;;-2.32;78.34
70250;BME280;57644;48.416;-123.374;2022-11-10T05:35:39;102480.20;;;-2.24;78.06
70250;BME280;57644;48.416;-123.374;2022-11-10T05:38:09;102480.55;;;-2.19;77.72
70250;BME280;57644;48.416;-123.374;2022-11-10T05:40:39;102480.16;;;-2.32;78.09
70250;BME280;57644;48.416;-123.374;2022-11-10T05:43:10;102481.25;;;-2.29;77.75
70250;BME280;57644;48.416;-123.374;2022-11-10T05:45:45;102485.59;;;-2.28;77.62
70250;BME280;57644;48.416;-123.374;2022-11-10T05:48:11;102486.99;;;-2.31;77.76
70250;BME280;57644;48.416;-123.374;2022-11-10T05:50:42;102490.14;;;-2.24;77.33
70250;BME280;57644;48.416;-123.374;2022-11-10T05:53:13;102492.53;;;-2.24;76.91
70250;BME280;57644;48.416;-123.374;2022-11-10T05:55:43;102495.12;;;-2.13;76.46
70250;BME280;57644;48.416;-123.374;2022-11-10T05:58:13;102499.54;;;-2.11;76.39
70250;BME280;57644;48.416;-123.374;2022-11-10T06:00:43;102501.07;;;-2.19;76.44
70250;BME280;57644;48.416;-123.374;2022-11-10T06:03:15;102499.92;;;-2.16;76.47
70250;BME280;57644;48.416;-123.374;2022-11-10T06:05:45;102501.67;;;-2.38;77.02
70250;BME280;57644;48.416;-123.374;2022-11-10T06:08:15;102502.96;;;-2.64;77.51
70250;BME280;57644;48.416;-123.374;2022-11-10T06:10:44;102504.96;;;-2.59;77.60
70250;BME280;57644;48.416;-123.374;2022-11-10T06:13:15;102514.31;;;-2.49;77.68
70250;BME280;57644;48.416;-123.374;2022-11-10T06:15:46;102517.84;;;-2.35;77.32
70250;BME280;57644;48.416;-123.374;2022-11-10T06:18:16;102521.31;;;-2.24;76.69
70250;BME280;57644;48.416;-123.374;2022-11-10T06:20:47;102524.56;;;-2.23;76.55
70250;BME280;57644;48.416;-123.374;2022-11-10T06:23:17;102528.68;;;-2.25;76.10
70250;BME280;57644;48.416;-123.374;2022-11-10T06:25:47;102528.57;;;-2.39;75.92
70250;BME280;57644;48.416;-123.374;2022-11-10T06:28:18;102532.21;;;-2.59;75.93
70250;BME280;57644;48.416;-123.374;2022-11-10T06:30:48;102533.03;;;-2.46;75.82
70250;BME280;57644;48.416;-123.374;2022-11-10T06:33:19;102533.22;;;-2.37;75.57
70250;BME280;57644;48.416;-123.374;2022-11-10T06:35:49;102531.62;;;-2.33;75.39
70250;BME280;57644;48.416;-123.374;2022-11-10T06:38:19;102535.42;;;-2.53;75.93
70250;BME280;57644;48.416;-123.374;2022-11-10T06:40:49;102538.70;;;-2.40;75.72
70250;BME280;57644;48.416;-123.374;2022-11-10T06:43:19;102541.73;;;-2.32;75.36
70250;BME280;57644;48.416;-123.374;2022-11-10T06:45:50;102545.87;;;-2.27;75.16
70250;BME280;57644;48.416;-123.374;2022-11-10T06:48:20;102545.17;;;-2.24;74.90
70250;BME280;57644;48.416;-123.374;2022-11-10T06:50:50;102542.87;;;-2.24;74.87
70250;BME280;57644;48.416;-123.374;2022-11-10T06:53:21;102544.27;;;-2.55;75.40
70250;BME280;57644;48.416;-123.374;2022-11-10T06:55:52;102542.74;;;-2.45;75.31
70250;BME280;57644;48.416;-123.374;2022-11-10T06:58:22;102546.48;;;-2.44;75.31
70250;BME280;57644;48.416;-123.374;2022-11-10T07:00:53;102545.58;;;-2.42;75.31
70250;BME280;57644;48.416;-123.374;2022-11-10T07:03:23;102549.89;;;-2.44;75.89
70250;BME280;57644;48.416;-123.374;2022-11-10T07:05:53;102553.67;;;-2.40;75.61
70250;BME280;57644;48.416;-123.374;2022-11-10T07:08:24;102553.14;;;-2.46;75.23
70250;BME280;57644;48.416;-123.374;2022-11-10T07:10:55;102555.30;;;-2.34;74.89
70250;BME280;57644;48.416;-123.374;2022-11-10T07:13:24;102557.99;;;-2.39;75.07
70250;BME280;57644;48.416;-123.374;2022-11-10T07:15:55;102561.40;;;-2.35;74.81
70250;BME280;57644;48.416;-123.374;2022-11-10T07:18:25;102564.29;;;-2.27;74.50
70250;BME280;57644;48.416;-123.374;2022-11-10T07:20:56;102566.15;;;-2.28;74.51
70250;BME280;57644;48.416;-123.374;2022-11-10T07:23:26;102566.50;;;-2.27;74.46
70250;BME280;57644;48.416;-123.374;2022-11-10T07:25:58;102565.31;;;-2.23;74.38
70250;BME280;57644;48.416;-123.374;2022-11-10T07:28:27;102564.12;;;-2.21;74.32
70250;BME280;57644;48.416;-123.374;2022-11-10T07:30:57;102566.83;;;-2.21;74.26
70250;BME280;57644;48.416;-123.374;2022-11-10T07:33:28;102570.15;;;-2.22;74.41
70250;BME280;57644;48.416;-123.374;2022-11-10T07:36:01;102575.34;;;-2.29;74.63
70250;BME280;57644;48.416;-123.374;2022-11-10T07:38:28;102576.57;;;-2.25;74.53
70250;BME280;57644;48.416;-123.374;2022-11-10T07:40:59;102577.20;;;-2.19;74.54
70250;BME280;57644;48.416;-123.374;2022-11-10T07:43:29;102579.23;;;-2.24;74.58
70250;BME280;57644;48.416;-123.374;2022-11-10T07:45:59;102581.95;;;-2.22;74.37
70250;BME280;57644;48.416;-123.374;2022-11-10T07:48:30;102585.76;;;-2.19;73.97
70250;BME280;57644;48.416;-123.374;2022-11-10T07:51:00;102590.75;;;-2.19;73.62
70250;BME280;57644;48.416;-123.374;2022-11-10T07:53:30;102590.87;;;-2.20;73.61
70250;BME280;57644;48.416;-123.374;2022-11-10T07:56:01;102597.30;;;-2.48;73.85
70250;BME280;57644;48.416;-123.374;2022-11-10T07:58:31;102602.76;;;-2.51;74.27
70250;BME280;57644;48.416;-123.374;2022-11-10T08:01:02;102612.26;;;-2.45;74.28
70250;BME280;57644;48.416;-123.374;2022-11-10T08:03:31;102616.25;;;-2.45;74.20
70250;BME280;57644;48.416;-123.374;2022-11-10T08:06:02;102619.05;;;-2.62;74.63
70250;BME280;57644;48.416;-123.374;2022-11-10T08:08:33;102622.37;;;-2.63;74.55
70250;BME280;57644;48.416;-123.374;2022-11-10T08:11:03;102625.01;;;-2.69;74.70
70250;BME280;57644;48.416;-123.374;2022-11-10T08:13:33;102626.59;;;-2.69;74.75
70250;BME280;57644;48.416;-123.374;2022-11-10T08:16:04;102628.82;;;-2.59;74.49
70250;BME280;57644;48.416;-123.374;2022-11-10T08:18:34;102627.18;;;-2.64;74.81
70250;BME280;57644;48.416;-123.374;2022-11-10T08:21:05;102625.55;;;-2.62;74.80
70250;BME280;57644;48.416;-123.374;2022-11-10T08:23:35;102628.10;;;-2.69;75.14
70250;BME280;57644;48.416;-123.374;2022-11-10T08:26:06;102632.45;;;-2.65;74.96
70250;BME280;57644;48.416;-123.374;2022-11-10T08:28:36;102635.27;;;-2.61;74.87
70250;BME280;57644;48.416;-123.374;2022-11-10T08:31:06;102639.38;;;-2.55;74.72
70250;BME280;57644;48.416;-123.374;2022-11-10T08:33:36;102642.84;;;-2.56;74.61
70250;BME280;57644;48.416;-123.374;2022-11-10T08:36:07;102649.14;;;-2.55;74.57
70250;BME280;57644;48.416;-123.374;2022-11-10T08:38:37;102658.43;;;-2.63;74.89
70250;BME280;57644;48.416;-123.374;2022-11-10T08:41:08;102660.16;;;-2.67;75.13
70250;BME280;57644;48.416;-123.374;2022-11-10T08:43:38;102660.42;;;-2.63;74.73
70250;BME280;57644;48.416;-123.374;2022-11-10T08:46:09;102659.11;;;-2.57;74.61
70250;BME280;57644;48.416;-123.374;2022-11-10T08:48:39;102663.10;;;-2.59;74.61
70250;BME280;57644;48.416;-123.374;2022-11-10T08:51:09;102661.50;;;-2.60;74.92
70250;BME280;57644;48.416;-123.374;2022-11-10T08:53:39;102661.96;;;-2.58;75.07
70250;BME280;57644;48.416;-123.374;2022-11-10T08:56:10;102665.97;;;-2.55;74.79
70250;BME280;57644;48.416;-123.374;2022-11-10T08:58:40;102666.96;;;-2.46;74.48
70250;BME280;57644;48.416;-123.374;2022-11-10T09:01:11;102667.96;;;-2.47;74.52
70250;BME280;57644;48.416;-123.374;2022-11-10T09:03:40;102672.33;;;-2.49;74.32
70250;BME280;57644;48.416;-123.374;2022-11-10T09:06:11;102674.00;;;-2.49;74.40
70250;BME280;57644;48.416;-123.374;2022-11-10T09:08:42;102672.40;;;-2.50;74.79
70250;BME280;57644;48.416;-123.374;2022-11-10T09:11:13;102676.04;;;-2.58;75.44
70250;BME280;57644;48.416;-123.374;2022-11-10T09:13:43;102678.44;;;-2.60;75.66
70250;BME280;57644;48.416;-123.374;2022-11-10T09:16:14;102685.31;;;-2.61;75.80
70250;BME280;57644;48.416;-123.374;2022-11-10T09:18:44;102687.84;;;-2.56;75.97
70250;BME280;57644;48.416;-123.374;2022-11-10T09:21:14;102688.60;;;-2.48;75.81
70250;BME280;57644;48.416;-123.374;2022-11-10T09:23:44;102688.36;;;-2.59;75.68
70250;BME280;57644;48.416;-123.374;2022-11-10T09:26:14;102689.11;;;-2.59;75.82
70250;BME280;57644;48.416;-123.374;2022-11-10T09:28:44;102679.14;;;-2.52;75.68
70250;BME280;57644;48.416;-123.374;2022-11-10T09:31:15;102676.71;;;-2.48;75.30
70250;BME280;57644;48.416;-123.374;2022-11-10T09:33:45;102680.04;;;-2.50;75.59
70250;BME280;57644;48.416;-123.374;2022-11-10T09:36:16;102683.01;;;-2.54;75.80
70250;BME280;57644;48.416;-123.374;2022-11-10T09:38:46;102689.07;;;-2.55;75.89
70250;BME280;57644;48.416;-123.374;2022-11-10T09:41:17;102693.98;;;-2.58;76.27
70250;BME280;57644;48.416;-123.374;2022-11-10T09:43:55;102693.75;;;-2.54;76.30
70250;BME280;57644;48.416;-123.374;2022-11-10T09:46:26;102697.44;;;-2.57;76.51
70250;BME280;57644;48.416;-123.374;2022-11-10T09:48:51;102697.18;;;-2.52;76.26
70250;BME280;57644;48.416;-123.374;2022-11-10T09:51:23;102697.57;;;-2.48;76.29
70250;BME280;57644;48.416;-123.374;2022-11-10T09:53:54;102696.84;;;-2.73;77.46
70250;BME280;57644;48.416;-123.374;2022-11-10T09:56:25;102698.25;;;-2.52;76.64
70250;BME280;57644;48.416;-123.374;2022-11-10T09:58:52;102698.16;;;-2.50;76.98
70250;BME280;57644;48.416;-123.374;2022-11-10T10:01:32;102705.50;;;-2.48;76.66
70250;BME280;57644;48.416;-123.374;2022-11-10T10:04:00;102709.85;;;-2.45;76.89
70250;BME280;57644;48.416;-123.374;2022-11-10T10:06:23;102710.61;;;-2.52;76.89
70250;BME280;57644;48.416;-123.374;2022-11-10T10:09:03;102711.95;;;-2.60;77.51
70250;BME280;57644;48.416;-123.374;2022-11-10T10:11:35;102713.01;;;-2.52;77.32
70250;BME280;57644;48.416;-123.374;2022-11-10T10:14:08;102722.47;;;-2.45;77.19
70250;BME280;57644;48.416;-123.374;2022-11-10T10:16:30;102731.41;;;-2.37;77.04
70250;BME280;57644;48.416;-123.374;2022-11-10T10:19:01;102733.47;;;-2.34;77.38
70250;BME280;57644;48.416;-123.374;2022-11-10T10:21:39;102730.55;;;-2.34;77.83
70250;BME280;57644;48.416;-123.374;2022-11-10T10:23:57;102727.83;;;-2.37;77.44
70250;BME280;57644;48.416;-123.374;2022-11-10T10:26:30;102726.49;;;-2.38;77.18
70250;BME280;57644;48.416;-123.374;2022-11-10T10:28:57;102731.97;;;-2.30;77.01
70250;BME280;57644;48.416;-123.374;2022-11-10T10:31:31;102734.67;;;-2.27;77.09
70250;BME280;57644;48.416;-123.374;2022-11-10T10:33:57;102731.81;;;-2.34;76.86
70250;BME280;57644;48.416;-123.374;2022-11-10T10:36:29;102733.13;;;-2.42;76.60
70250;BME280;57644;48.416;-123.374;2022-11-10T10:39:03;102730.21;;;-2.40;76.56
70250;BME280;57644;48.416;-123.374;2022-11-10T10:41:30;102730.18;;;-2.38;76.68
70250;BME280;57644;48.416;-123.374;2022-11-10T10:44:01;102729.94;;;-2.37;76.60
70250;BME280;57644;48.416;-123.374;2022-11-10T10:46:30;102729.54;;;-2.35;76.62
70250;BME280;57644;48.416;-123.374;2022-11-10T10:49:11;102723.38;;;-2.32;76.40
70250;BME280;57644;48.416;-123.374;2022-11-10T10:51:31;102714.82;;;-2.32;75.94
70250;BME280;57644;48.416;-123.374;2022-11-10T10:54:01;102715.51;;;-2.34;75.91
70250;BME280;57644;48.416;-123.374;2022-11-10T10:56:32;102719.02;;;-2.40;76.21
70250;BME280;57644;48.416;-123.374;2022-11-10T10:59:03;102721.77;;;-2.44;76.57
70250;BME280;57644;48.416;-123.374;2022-11-10T11:01:36;102726.43;;;-2.44;76.91
70250;BME280;57644;48.416;-123.374;2022-11-10T11:04:25;102728.12;;;-2.38;77.05
70250;BME280;57644;48.416;-123.374;2022-11-10T11:06:34;102728.93;;;-2.33;76.96
70250;BME280;57644;48.416;-123.374;2022-11-10T11:09:08;102729.06;;;-2.38;77.37
70250;BME280;57644;48.416;-123.374;2022-11-10T11:11:37;102724.85;;;-2.37;77.48
70250;BME280;57644;48.416;-123.374;2022-11-10T11:19:07;102725.33;;;-2.30;77.87
70250;BME280;57644;48.416;-123.374;2022-11-10T11:21:43;102731.11;;;-2.28;78.02
70250;BME280;57644;48.416;-123.374;2022-11-10T11:24:19;102733.32;;;-2.37;78.48
70250;BME280;57644;48.416;-123.374;2022-11-10T11:26:43;102732.26;;;-2.30;78.49
70250;BME280;57644;48.416;-123.374;2022-11-10T11:29:17;102732.79;;;-2.28;78.58
70250;BME280;57644;48.416;-123.374;2022-11-10T11:31:48;102733.27;;;-2.28;78.46
70250;BME280;57644;48.416;-123.374;2022-11-10T11:34:14;102734.78;;;-2.24;78.36
70250;BME280;57644;48.416;-123.374;2022-11-10T11:36:44;102736.38;;;-2.30;78.92
70250;BME280;57644;48.416;-123.374;2022-11-10T11:39:18;102736.05;;;-2.32;78.83
70250;BME280;57644;48.416;-123.374;2022-11-10T11:41:43;102737.71;;;-2.35;78.86
70250;BME280;57644;48.416;-123.374;2022-11-10T11:44:17;102737.66;;;-2.34;78.53
70250;BME280;57644;48.416;-123.374;2022-11-10T11:46:44;102735.09;;;-2.28;78.37
70250;BME280;57644;48.416;-123.374;2022-11-10T11:49:21;102737.06;;;-2.54;79.04
70250;BME280;57644;48.416;-123.374;2022-11-10T11:51:44;102728.85;;;-2.37;78.61
70250;BME280;57644;48.416;-123.374;2022-11-10T11:54:26;102732.11;;;-2.29;78.46
70250;BME280;57644;48.416;-123.374;2022-11-10T11:56:43;102734.33;;;-2.35;78.72
70250;BME280;57644;48.416;-123.374;2022-11-10T11:59:23;102732.99;;;-2.30;78.83
70250;BME280;57644;48.416;-123.374;2022-11-10T12:01:54;102732.79;;;-2.28;78.90
70250;BME280;57644;48.416;-123.374;2022-11-10T12:04:21;102731.86;;;-2.26;78.97
70250;BME280;57644;48.416;-123.374;2022-11-10T12:06:53;102735.45;;;-2.27;79.01
70250;BME280;57644;48.416;-123.374;2022-11-10T12:09:21;102732.61;;;-2.32;79.11
70250;BME280;57644;48.416;-123.374;2022-11-10T12:11:58;102732.68;;;-2.32;79.30
70250;BME280;57644;48.416;-123.374;2022-11-10T12:14:21;102730.96;;;-2.33;79.31
70250;BME280;57644;48.416;-123.374;2022-11-10T12:16:54;102729.56;;;-2.39;78.96
70250;BME280;57644;48.416;-123.374;2022-11-10T12:19:25;102725.52;;;-2.35;78.64
70250;BME280;57644;48.416;-123.374;2022-11-10T12:21:53;102722.98;;;-2.28;78.46
70250;BME280;57644;48.416;-123.374;2022-11-10T12:24:32;102722.96;;;-2.31;78.63
70250;BME280;57644;48.416;-123.374;2022-11-10T12:26:53;102719.66;;;-2.42;78.88
70250;BME280;57644;48.416;-123.374;2022-11-10T12:29:26;102721.72;;;-2.49;78.98
70250;BME280;57644;48.416;-123.374;2022-11-10T12:31:54;102718.21;;;-2.45;78.98
70250;BME280;57644;48.416;-123.374;2022-11-10T12:34:29;102718.28;;;-2.39;79.02
70250;BME280;57644;48.416;-123.374;2022-11-10T12:36:51;102721.92;;;-2.32;78.89
70250;BME280;57644;48.416;-123.374;2022-11-10T12:39:23;102722.73;;;-2.33;78.99
70250;BME280;57644;48.416;-123.374;2022-11-10T12:41:54;102723.59;;;-2.30;78.91
70250;BME280;57644;48.416;-123.374;2022-11-10T12:44:27;102727.07;;;-2.28;78.92